Meridian, MS (39301)

4:56 PM CDT on September 01, 2015 (GMT -0500)
APRSWXNET | | Change Station
CLOSE
Current Station
Personal Weather Station
Location: Meridian, MS
Elevation: 327 ft
Nearby Weather Stations

Elev 327 ft 32.42 °N, 88.75 °W | Updated 26 minutes ago

Partly Cloudy
Partly Cloudy
91 °F
Feels Like 101 °F
N
1
Wind Variable Wind from ESE
Gusts 2.0 mph

Today
High -- | Low -- °F
--% Chance of Precip.
Yesterday
High -- | Low -- °F
Precip. -- in
6:29 AM 7:19 PM
Waning Gibbous, 86% visible
Pressure 30.02 in
Visibility 10.0 miles
Clouds Scattered Clouds 6000 ft
Mostly Cloudy 10000 ft
Heat Index 101 °F
Dew Point 74 °F
Humidity 58%
Rainfall in
Snow Depth Not available.
UV 3 out of 12
Pollen 9.00 out of 12
Air Quality Not available.
Flu Activity Not available.
METAR KMEI 012058Z 08007KT 10SM SCT060 BKN100 33/20 A3003 RMK AO2 SLP165 T03280200 58013
Pressure 30.02 in
Visibility 10.0 miles
Clouds Scattered Clouds 6000 ft
Mostly Cloudy 10000 ft
Heat Index 101 °F
Dew Point 74 °F
Humidity 58%
Rainfall in
Snow Depth Not available.
UV 3 out of 12
Pollen 9.00 out of 12
Air Quality Not available.
Flu Activity Not available.
METAR KMEI 012058Z 08007KT 10SM SCT060 BKN100 33/20 A3003 RMK AO2 SLP165 T03280200 58013

10-Day Weather Forecast

×

Almanac

Astronomy

Sep. 01, 2015 Rise Set
Actual Time
Civil Twilight
Nautical Twilight
Astronomical Twilight
Moon
Length of Visible Light
Length of Day
Tomorrow will be .
, % of the Moon is Illuminated

Today's Extremes

State Highs State Lows

Community

WunderPhotos

Upload Photos

1,851,628 photos uploaded!

WunderBlogs® & News

Nearby

Air Quality

  Air Quality AQ Index Pollutant
Not available.

Snow Depth

Station Depth Elevation

Earthquake Activity

City Distance Mag. Time & Date
Minimum magnitude displayed is 2.5.

Coastal Water Temperatures

Place Temperature

Stations

Nearby Weather Stations

Station Location Temp. Windchill Dew Point Humidity Wind Precip. Elev Updated Type